This is the latest recevied weather packets stored in our database for station/object DL6ABE-13. If no packets are shown the sender has not sent any weather packets the latest 10 day(s).
| Time | Temp. | Humidity | Pressure | Rain* | Wind** | Luminosity | Snow |
|---|---|---|---|---|---|---|---|
| 1777198844 | 18.33° C | 50% | 1018.6 hPa | - | - | - | - |
| 1777194634 | 16.11° C | 53% | 1018.9 hPa | - | - | - | - |
| 1777194032 | 16.11° C | 54% | 1018.9 hPa | - | - | - | - |
| 1777191622 | 14.44° C | 57% | 1018.8 hPa | - | - | - | - |
| 1777189214 | 12.78° C | 60% | 1018.7 hPa | - | - | - | - |
| 1777188611 | 12.78° C | 62% | 1018.7 hPa | - | - | - | - |
| 1777187409 | 11.67° C | 65% | 1018.8 hPa | - | - | - | - |
| 1777182290 | 6.67° C | 71% | 1018.6 hPa | - | - | - | - |
| 1777178077 | 7.78° C | 66% | 1017.8 hPa | - | - | - | - |
| 1777169648 | 10° C | 56% | 1016.8 hPa | - | - | - | - |
| 1777166639 | 10.56° C | 53% | 1016.8 hPa | - | - | - | - |
| 1777164231 | 11.11° C | 51% | 1016.6 hPa | - | - | - | - |
| 1777162424 | 11.67° C | 50% | 1016.4 hPa | - | - | - | - |
| 1777160016 | 11.67° C | 52% | 1016.4 hPa | - | - | - | - |
| 1777158815 | 11.67° C | 54% | 1016.3 hPa | - | - | - | - |
| 1777158212 | 11.67° C | 55% | 1016.2 hPa | - | - | - | - |
| 1777147976 | 14.44° C | 61% | 1014.4 hPa | - | - | - | - |
| 1777146794 | 15.56° C | 58% | 1014.2 hPa | - | - | - | - |
| 1777141959 | 18.89° C | 48% | 1013.2 hPa | - | - | - | - |
| 1777141357 | 19.44° C | 47% | 1013.1 hPa | - | - | - | - |
| 1777140152 | 20° C | 44% | 1013 hPa | - | - | - | - |
| 1777137140 | 21.11° C | 40% | 1012.8 hPa | - | - | - | - |
| 1777135337 | 21.11° C | 39% | 1012.8 hPa | - | - | - | - |
| 1777133530 | 21.11° C | 38% | 1012.7 hPa | - | - | - | - |
| 1777132926 | 21.11° C | 36% | 1012.8 hPa | - | - | - | - |
* Rain since midnight (hover to see other rain measurements)
** Current wind speed in m/s (hover to see current wind gust speed)